createdAt,value
2019-01-05T00:00:07.210Z,21.79
2019-01-05T00:01:06.988Z,21.74
2019-01-05T00:02:59.683Z,21.69
2019-01-05T00:03:59.354Z,21.74
2019-01-05T00:05:51.873Z,21.81
2019-01-05T00:06:51.678Z,21.72
2019-01-05T00:08:43.989Z,21.72
2019-01-05T00:09:43.982Z,21.72
2019-01-05T00:11:36.523Z,21.76
2019-01-05T00:12:36.657Z,21.81
2019-01-05T00:14:28.996Z,21.74
2019-01-05T00:15:29.003Z,21.75
2019-01-05T00:17:21.171Z,21.74
2019-01-05T00:18:20.988Z,21.72
2019-01-05T00:20:14.255Z,21.76
2019-01-05T00:21:19.514Z,21.72
2019-01-05T00:23:05.860Z,21.76
2019-01-05T00:24:05.653Z,21.76
2019-01-05T00:25:58.013Z,21.76
2019-01-05T00:26:58.332Z,21.74
2019-01-05T00:28:50.862Z,21.76
2019-01-05T00:29:50.640Z,21.69
2019-01-05T00:31:42.999Z,21.81
2019-01-05T00:32:42.613Z,21.76
2019-01-05T00:34:35.147Z,21.76
2019-01-05T00:35:34.979Z,21.74
2019-01-05T00:37:27.688Z,21.74
2019-01-05T00:38:27.311Z,21.78
2019-01-05T00:40:20.200Z,21.74
2019-01-05T00:41:19.969Z,21.78
2019-01-05T00:43:12.298Z,21.66
2019-01-05T00:44:11.961Z,21.74
2019-01-05T00:46:04.475Z,21.67
2019-01-05T00:47:04.241Z,21.79
2019-01-05T00:48:56.635Z,21.74
2019-01-05T00:49:56.632Z,21.72
2019-01-05T00:51:49.494Z,21.81
2019-01-05T00:52:49.257Z,21.74
2019-01-05T00:54:41.675Z,21.76
2019-01-05T00:55:41.265Z,21.71
2019-01-05T00:57:33.838Z,21.74
2019-01-05T00:58:33.556Z,21.75
2019-01-05T01:00:25.896Z,21.74
2019-01-05T01:01:26.281Z,21.71
2019-01-05T01:03:18.475Z,21.74
2019-01-05T01:04:18.546Z,21.72
2019-01-05T01:06:10.564Z,21.66
2019-01-05T01:07:10.946Z,21.74
2019-01-05T01:09:03.449Z,21.79
2019-01-05T01:10:03.225Z,21.67
2019-01-05T01:11:55.545Z,21.66
2019-01-05T01:12:55.530Z,21.74
2019-01-05T01:14:47.778Z,21.82
2019-01-05T01:15:47.524Z,21.66
2019-01-05T01:17:40.246Z,21.76
2019-01-05T01:18:39.844Z,21.69
2019-01-05T01:20:32.769Z,21.83
2019-01-05T01:21:32.166Z,21.79
2019-01-05T01:23:25.408Z,21.83
2019-01-05T01:24:25.051Z,21.81
2019-01-05T01:26:17.990Z,21.83
2019-01-05T01:27:17.713Z,21.78
2019-01-05T01:29:10.100Z,21.81
2019-01-05T01:30:10.075Z,21.90
2019-01-05T01:32:02.262Z,21.82
2019-01-05T01:33:02.377Z,21.85
2019-01-05T01:34:54.368Z,21.85
2019-01-05T01:35:54.743Z,21.88
2019-01-05T01:37:47.294Z,21.88
2019-01-05T01:38:47.046Z,21.85
2019-01-05T01:40:39.030Z,21.79
2019-01-05T01:41:39.403Z,21.90
2019-01-05T01:43:31.939Z,21.88
2019-01-05T01:44:31.352Z,21.79
2019-01-05T01:46:23.679Z,21.85
2019-01-05T01:47:23.697Z,21.88
2019-01-05T01:49:16.598Z,21.90
2019-01-05T01:50:16.356Z,21.88
2019-01-05T01:52:08.378Z,21.97
2019-01-05T01:53:08.679Z,21.98
2019-01-05T01:55:01.242Z,21.91
2019-01-05T01:56:00.999Z,21.99
2019-01-05T01:57:53.377Z,21.94
2019-01-05T01:58:53.375Z,21.95
2019-01-05T02:00:45.569Z,21.99
2019-01-05T02:01:45.334Z,21.98
2019-01-05T02:03:37.989Z,22.01
2019-01-05T02:04:37.979Z,21.98
2019-01-05T02:06:30.192Z,22.04
2019-01-05T02:07:30.294Z,21.97
2019-01-05T02:09:22.325Z,22.02
2019-01-05T02:10:22.634Z,21.99
2019-01-05T02:12:15.250Z,21.97
2019-01-05T02:13:14.987Z,22.02
2019-01-05T02:15:06.973Z,22.04
2019-01-05T02:16:07.332Z,22.06
2019-01-05T02:17:59.603Z,22.06
2019-01-05T02:18:59.343Z,22.02
2019-01-05T02:20:51.665Z,22.06
2019-01-05T02:21:51.642Z,22.02
2019-01-05T02:23:44.195Z,22.09
2019-01-05T02:24:44.001Z,22.07
2019-01-05T02:26:36.689Z,22.01
2019-01-05T02:27:36.654Z,22.10
2019-01-05T02:29:28.873Z,22.07
2019-01-05T02:30:28.673Z,22.10
2019-01-05T02:32:21.305Z,22.07
2019-01-05T02:33:21.318Z,22.12
2019-01-05T02:35:13.915Z,22.10
2019-01-05T02:36:13.713Z,22.16
2019-01-05T02:38:06.038Z,22.12
2019-01-05T02:39:05.683Z,22.12
2019-01-05T02:40:58.233Z,22.16
2019-01-05T02:41:57.977Z,22.07
2019-01-05T02:43:50.414Z,22.10
2019-01-05T02:44:50.429Z,22.09
2019-01-05T02:46:43.418Z,22.10
2019-01-05T02:47:43.209Z,22.17
2019-01-05T02:49:35.087Z,22.19
2019-01-05T02:50:34.701Z,22.19
2019-01-05T02:52:27.647Z,22.20
2019-01-05T02:53:27.421Z,22.13
2019-01-05T02:55:19.402Z,22.22
2019-01-05T02:56:19.713Z,22.16
2019-01-05T02:58:12.255Z,22.19
2019-01-05T02:59:11.734Z,22.22
2019-01-05T03:01:04.397Z,22.14
2019-01-05T03:02:04.384Z,22.22
2019-01-05T03:03:56.896Z,22.22
2019-01-05T03:04:56.347Z,22.28
2019-01-05T03:06:49.093Z,22.25
2019-01-05T03:07:48.710Z,22.29
2019-01-05T03:09:41.618Z,22.29
2019-01-05T03:10:40.991Z,22.28
2019-01-05T03:12:33.356Z,22.29
2019-01-05T03:13:33.689Z,22.29
2019-01-05T03:15:26.247Z,22.16
2019-01-05T03:16:26.011Z,22.31
2019-01-05T03:18:18.383Z,22.29
2019-01-05T03:19:18.378Z,22.25
2019-01-05T03:21:10.905Z,22.16
2019-01-05T03:22:10.305Z,22.23
2019-01-05T03:24:03.217Z,22.25
2019-01-05T03:25:03.568Z,22.20
2019-01-05T03:26:55.808Z,22.29
2019-01-05T03:27:55.550Z,22.27
2019-01-05T03:29:48.273Z,22.23
2019-01-05T03:30:48.276Z,22.20
2019-01-05T03:32:40.493Z,22.25
2019-01-05T03:33:40.207Z,22.32
2019-01-05T03:35:32.552Z,22.29
2019-01-05T03:36:32.532Z,22.28
2019-01-05T03:38:25.085Z,22.27
2019-01-05T03:39:24.878Z,22.20
2019-01-05T03:41:17.567Z,22.17
2019-01-05T03:42:17.562Z,22.28
2019-01-05T03:44:09.791Z,22.17
2019-01-05T03:45:09.562Z,22.20
2019-01-05T03:47:02.234Z,22.23
2019-01-05T03:48:01.875Z,22.25
2019-01-05T03:49:54.650Z,22.28
2019-01-05T03:50:54.468Z,22.20
2019-01-05T03:52:46.828Z,22.20
2019-01-05T03:53:46.794Z,22.19
2019-01-05T03:55:39.723Z,22.20
2019-01-05T03:56:39.459Z,22.17
2019-01-05T03:58:31.806Z,22.14
2019-01-05T03:59:31.487Z,22.19
2019-01-05T04:01:24.354Z,22.17
2019-01-05T04:02:24.134Z,22.22
2019-01-05T04:04:16.508Z,22.20
2019-01-05T04:05:16.487Z,22.25
2019-01-05T04:07:09.021Z,22.16
2019-01-05T04:08:08.458Z,22.17
2019-01-05T04:10:00.831Z,22.22
2019-01-05T04:11:01.171Z,22.22
2019-01-05T04:12:53.367Z,22.19
2019-01-05T04:13:53.461Z,22.20
2019-01-05T04:15:45.805Z,22.23
2019-01-05T04:16:45.838Z,22.17
2019-01-05T04:18:37.988Z,22.14
2019-01-05T04:19:38.137Z,22.17
2019-01-05T04:21:30.482Z,22.14
2019-01-05T04:22:30.118Z,22.12
2019-01-05T04:24:23.053Z,22.20
2019-01-05T04:25:22.429Z,22.13
2019-01-05T04:27:14.785Z,22.16
2019-01-05T04:28:14.769Z,22.14
2019-01-05T04:30:07.345Z,22.09
2019-01-05T04:31:07.417Z,22.19
2019-01-05T04:32:59.816Z,22.25
2019-01-05T04:33:59.450Z,22.17
2019-01-05T04:35:52.014Z,22.06
2019-01-05T04:36:51.785Z,22.20
2019-01-05T04:38:44.451Z,22.10
2019-01-05T04:39:44.415Z,22.20
2019-01-05T04:41:36.659Z,22.07
2019-01-05T04:42:36.445Z,22.12
2019-01-05T04:44:29.121Z,22.14
2019-01-05T04:45:28.769Z,22.07
2019-01-05T04:47:21.675Z,22.07
2019-01-05T04:48:21.094Z,22.12
2019-01-05T04:50:13.404Z,22.06
2019-01-05T04:51:13.752Z,22.09
2019-01-05T04:53:05.930Z,22.10
2019-01-05T04:54:06.099Z,22.16
2019-01-05T04:55:58.089Z,22.07
2019-01-05T04:56:58.075Z,22.09
2019-01-05T04:58:50.975Z,22.12
2019-01-05T04:59:50.413Z,22.07
2019-01-05T05:01:42.623Z,22.14
2019-01-05T05:02:42.257Z,22.07
2019-01-05T05:04:35.165Z,22.04
2019-01-05T05:05:34.935Z,22.06
2019-01-05T05:07:26.954Z,22.09
2019-01-05T05:08:26.950Z,22.09
2019-01-05T05:10:19.503Z,22.12
2019-01-05T05:11:19.278Z,22.19
2019-01-05T05:13:12.057Z,22.07
2019-01-05T05:14:11.571Z,22.14
2019-01-05T05:16:04.499Z,22.09
2019-01-05T05:17:03.943Z,22.06
2019-01-05T05:18:56.611Z,22.09
2019-01-05T05:19:56.599Z,22.12
2019-01-05T05:21:49.167Z,22.17
2019-01-05T05:22:48.992Z,22.13
2019-01-05T05:24:41.837Z,22.10
2019-01-05T05:25:41.482Z,22.06
2019-01-05T05:27:34.631Z,22.12
2019-01-05T05:28:33.775Z,22.09
2019-01-05T05:30:26.174Z,22.10
2019-01-05T05:31:26.128Z,22.14
2019-01-05T05:33:18.677Z,22.07
2019-01-05T05:34:18.824Z,22.10
2019-01-05T05:36:10.830Z,22.07
2019-01-05T05:37:10.776Z,22.07
2019-01-05T05:39:10.838Z,22.06
2019-01-05T05:40:03.023Z,22.07
2019-01-05T05:41:55.012Z,22.17
2019-01-05T05:42:55.341Z,22.06
2019-01-05T05:44:47.625Z,22.12
2019-01-05T05:45:47.378Z,22.06
2019-01-05T05:47:40.056Z,22.07
2019-01-05T05:48:39.723Z,22.09
2019-01-05T05:50:32.638Z,22.09
2019-01-05T05:51:32.048Z,22.09
2019-01-05T05:53:24.714Z,22.10
2019-01-05T05:54:24.701Z,22.07
2019-01-05T05:56:17.297Z,22.07
2019-01-05T05:57:16.678Z,22.10
2019-01-05T05:59:09.426Z,22.10
2019-01-05T06:00:09.057Z,22.02
2019-01-05T06:02:01.619Z,22.07
2019-01-05T06:03:01.382Z,22.10
2019-01-05T06:04:53.721Z,22.10
2019-01-05T06:05:54.039Z,22.07
2019-01-05T06:07:46.260Z,22.07
2019-01-05T06:08:46.400Z,22.06
2019-01-05T06:10:38.713Z,22.07
2019-01-05T06:11:38.686Z,22.07
2019-01-05T06:13:31.260Z,22.02
2019-01-05T06:14:30.740Z,22.06
2019-01-05T06:16:23.135Z,22.07
2019-01-05T06:17:23.343Z,22.07
2019-01-05T06:19:15.404Z,22.12
2019-01-05T06:20:14.866Z,22.10
2019-01-05T06:22:07.553Z,22.07
2019-01-05T06:23:07.497Z,22.02
2019-01-05T06:24:59.723Z,22.13
2019-01-05T06:25:59.828Z,22.20
2019-01-05T06:27:51.824Z,22.10
2019-01-05T06:28:51.864Z,22.14
2019-01-05T06:30:44.373Z,22.22
2019-01-05T06:31:44.523Z,22.16
2019-01-05T06:33:36.818Z,22.16
2019-01-05T06:34:36.840Z,22.19
2019-01-05T06:36:29.358Z,22.14
2019-01-05T06:37:28.833Z,22.16
2019-01-05T06:39:21.136Z,22.20
2019-01-05T06:40:21.476Z,22.16
2019-01-05T06:42:13.751Z,22.22
2019-01-05T06:43:13.833Z,22.16
2019-01-05T06:45:06.173Z,22.14
2019-01-05T06:46:06.178Z,22.19
2019-01-05T06:47:58.719Z,22.23
2019-01-05T06:48:58.492Z,22.19
2019-01-05T06:50:50.868Z,22.28
2019-01-05T06:51:50.894Z,22.27
2019-01-05T06:53:43.363Z,22.19
2019-01-05T06:54:42.782Z,22.31
2019-01-05T06:56:35.526Z,22.28
2019-01-05T06:57:35.155Z,22.29
2019-01-05T06:59:27.708Z,22.25
2019-01-05T07:00:27.867Z,22.31
2019-01-05T07:02:19.856Z,22.22
2019-01-05T07:03:20.229Z,22.29
2019-01-05T07:05:12.766Z,22.25
2019-01-05T07:06:12.151Z,22.28
2019-01-05T07:08:04.497Z,22.27
2019-01-05T07:09:04.873Z,22.20
2019-01-05T07:10:57.065Z,22.27
2019-01-05T07:11:57.171Z,22.25
2019-01-05T07:13:49.137Z,22.28
2019-01-05T07:14:49.498Z,22.23
2019-01-05T07:16:41.718Z,22.31
2019-01-05T07:17:41.816Z,22.25
2019-01-05T07:19:33.848Z,22.27
2019-01-05T07:20:33.783Z,22.29
2019-01-05T07:22:26.775Z,22.23
2019-01-05T07:23:26.150Z,22.28
2019-01-05T07:25:19.427Z,22.22
2019-01-05T07:26:19.063Z,22.22
2019-01-05T07:28:11.618Z,22.16
2019-01-05T07:29:11.748Z,22.29
2019-01-05T07:31:03.726Z,22.22
2019-01-05T07:32:04.052Z,22.25
2019-01-05T07:33:56.279Z,22.25
2019-01-05T07:34:56.026Z,22.28
2019-01-05T07:36:48.728Z,22.28
2019-01-05T07:37:48.683Z,22.29
2019-01-05T07:39:40.886Z,22.27
2019-01-05T07:40:41.050Z,22.27
2019-01-05T07:42:33.350Z,22.28
2019-01-05T07:43:33.003Z,22.23
2019-01-05T07:45:25.953Z,22.25
2019-01-05T07:46:25.322Z,22.28
2019-01-05T07:48:18.661Z,22.28
2019-01-05T07:49:17.653Z,22.28
2019-01-05T07:51:10.543Z,22.29
2019-01-05T07:52:09.985Z,22.28
2019-01-05T07:54:02.689Z,22.20
2019-01-05T07:55:02.689Z,22.25
2019-01-05T07:56:54.785Z,22.27
2019-01-05T07:57:54.523Z,22.25
2019-01-05T07:59:46.506Z,22.32
2019-01-05T08:00:46.531Z,22.22
2019-01-05T08:02:39.071Z,22.23
2019-01-05T08:03:39.194Z,22.28
2019-01-05T08:05:31.172Z,22.28
2019-01-05T08:06:31.157Z,22.23
2019-01-05T08:08:24.061Z,22.29
2019-01-05T08:09:23.487Z,22.28
2019-01-05T08:11:15.337Z,22.27
2019-01-05T08:12:15.375Z,22.23
2019-01-05T08:14:07.974Z,22.23
2019-01-05T08:15:07.717Z,22.27
2019-01-05T08:17:00.062Z,22.28
2019-01-05T08:18:00.409Z,22.25
2019-01-05T08:19:52.642Z,22.20
2019-01-05T08:20:52.442Z,22.28
2019-01-05T08:22:45.133Z,22.20
2019-01-05T08:23:45.093Z,22.23
2019-01-05T08:25:42.222Z,22.29
2019-01-05T08:26:37.435Z,22.28
2019-01-05T08:28:29.442Z,22.28
2019-01-05T08:29:29.381Z,22.25
2019-01-05T08:31:22.363Z,22.27
2019-01-05T08:32:21.729Z,22.25
2019-01-05T08:34:14.453Z,22.27
2019-01-05T08:35:14.055Z,22.28
2019-01-05T08:37:10.359Z,22.28
2019-01-05T08:38:06.722Z,22.27
2019-01-05T08:39:58.723Z,22.25
2019-01-05T08:40:58.728Z,22.29
2019-01-05T08:42:51.252Z,22.25
2019-01-05T08:43:51.439Z,22.31
2019-01-05T08:45:43.770Z,22.29
2019-01-05T08:46:43.730Z,22.31
2019-01-05T08:48:35.942Z,22.28
2019-01-05T08:49:35.735Z,22.19
2019-01-05T08:51:28.043Z,22.23
2019-01-05T08:52:28.024Z,22.25
2019-01-05T08:54:20.602Z,22.19
2019-01-05T08:55:20.354Z,22.28
2019-01-05T08:57:12.691Z,22.31
2019-01-05T08:58:13.039Z,22.27
2019-01-05T09:00:08.638Z,22.31
2019-01-05T09:01:05.358Z,22.28
2019-01-05T09:02:57.341Z,22.25
2019-01-05T09:03:57.719Z,22.31
2019-01-05T09:05:49.928Z,22.29
2019-01-05T09:06:49.696Z,22.25
2019-01-05T09:08:42.390Z,22.23
2019-01-05T09:09:42.379Z,22.28
2019-01-05T09:11:34.581Z,22.25
2019-01-05T09:12:34.352Z,22.28
2019-01-05T09:14:26.690Z,22.23
2019-01-05T09:15:26.640Z,22.29
2019-01-05T09:17:19.576Z,22.28
2019-01-05T09:18:19.317Z,22.23
2019-01-05T09:20:11.349Z,22.27
2019-01-05T09:21:11.298Z,22.28
2019-01-05T09:23:03.883Z,22.32
2019-01-05T09:24:04.023Z,22.27
2019-01-05T09:25:56.529Z,22.22
2019-01-05T09:26:56.486Z,22.20
2019-01-05T09:28:49.047Z,22.25
2019-01-05T09:29:48.839Z,22.28
2019-01-05T09:31:41.537Z,22.31
2019-01-05T09:32:41.484Z,22.25
2019-01-05T09:34:34.092Z,22.25
2019-01-05T09:35:33.504Z,22.27
2019-01-05T09:37:25.815Z,22.31
2019-01-05T09:38:26.173Z,22.19
2019-01-05T09:40:18.383Z,22.25
2019-01-05T09:41:18.512Z,22.27
2019-01-05T09:43:10.494Z,22.25
2019-01-05T09:44:10.834Z,22.20
2019-01-05T09:46:03.003Z,22.28
2019-01-05T09:47:02.785Z,22.25
2019-01-05T09:48:55.470Z,22.27
2019-01-05T09:49:55.466Z,22.29
2019-01-05T09:51:47.687Z,22.28
2019-01-05T09:52:47.464Z,22.25
2019-01-05T09:54:39.790Z,22.28
2019-01-05T09:55:39.771Z,22.25
2019-01-05T09:57:32.702Z,22.23
2019-01-05T09:58:32.474Z,22.28
2019-01-05T10:00:24.795Z,22.25
2019-01-05T10:01:24.480Z,22.25
2019-01-05T10:03:17.426Z,22.27
2019-01-05T10:04:17.179Z,22.23
2019-01-05T10:06:09.474Z,22.28
2019-01-05T10:07:09.152Z,22.25
2019-01-05T10:09:01.651Z,22.31
2019-01-05T10:10:01.454Z,22.28
2019-01-05T10:11:54.188Z,22.22
2019-01-05T10:12:54.168Z,22.29
2019-01-05T10:14:46.668Z,22.29
2019-01-05T10:15:46.119Z,22.28
2019-01-05T10:17:38.830Z,22.25
2019-01-05T10:18:38.428Z,22.28
2019-01-05T10:20:30.559Z,22.28
2019-01-05T10:21:30.289Z,22.28
2019-01-05T10:23:22.630Z,22.28
2019-01-05T10:24:23.001Z,22.28
2019-01-05T10:26:15.181Z,22.31
2019-01-05T10:27:15.318Z,22.23
2019-01-05T10:29:07.326Z,22.31
2019-01-05T10:30:07.632Z,22.28
2019-01-05T10:31:59.844Z,22.23
2019-01-05T10:32:59.596Z,22.27
2019-01-05T10:34:52.338Z,22.29
2019-01-05T10:35:52.304Z,22.32
2019-01-05T10:37:44.525Z,22.27
2019-01-05T10:38:44.639Z,22.29
2019-01-05T10:40:36.963Z,22.28
2019-01-05T10:41:36.969Z,22.27
2019-01-05T10:43:29.541Z,22.27
2019-01-05T10:44:29.286Z,22.31
2019-01-05T10:46:21.262Z,22.28
2019-01-05T10:47:21.287Z,22.28
2019-01-05T10:49:14.173Z,22.27
2019-01-05T10:50:13.586Z,22.27
2019-01-05T10:52:06.280Z,22.20
2019-01-05T10:53:05.942Z,22.23
2019-01-05T10:54:58.490Z,22.27
2019-01-05T10:55:58.596Z,22.28
2019-01-05T10:57:50.945Z,22.29
2019-01-05T10:58:50.951Z,22.29
2019-01-05T11:00:43.112Z,22.29
2019-01-05T11:01:42.879Z,22.29
2019-01-05T11:03:35.589Z,22.32
2019-01-05T11:04:35.252Z,22.25
2019-01-05T11:06:27.830Z,22.29
2019-01-05T11:07:27.562Z,22.28
2019-01-05T11:09:19.907Z,22.28
2019-01-05T11:10:20.288Z,22.25
2019-01-05T11:12:12.476Z,22.25
2019-01-05T11:13:12.621Z,22.29
2019-01-05T11:15:04.606Z,22.22
2019-01-05T11:16:04.922Z,22.29
2019-01-05T11:17:57.111Z,22.27
2019-01-05T11:18:56.908Z,22.29
2019-01-05T11:20:49.268Z,22.25
2019-01-05T11:21:49.214Z,22.22
2019-01-05T11:23:41.789Z,22.27
2019-01-05T11:24:41.881Z,22.27
2019-01-05T11:26:34.477Z,22.28
2019-01-05T11:27:34.763Z,22.27
2019-01-05T11:29:27.023Z,22.27
2019-01-05T11:30:26.790Z,22.29
2019-01-05T11:32:19.155Z,22.29
2019-01-05T11:33:19.446Z,22.25
2019-01-05T11:35:12.058Z,22.31
2019-01-05T11:36:11.416Z,22.25
2019-01-05T11:38:04.165Z,22.29
2019-01-05T11:39:03.789Z,22.27
2019-01-05T11:40:56.361Z,22.29
2019-01-05T11:41:56.485Z,22.31
2019-01-05T11:43:48.818Z,22.31
2019-01-05T11:44:48.802Z,22.35
2019-01-05T11:46:41.013Z,22.25
2019-01-05T11:47:41.113Z,22.25
2019-01-05T11:49:33.123Z,22.29
2019-01-05T11:50:33.453Z,22.29
2019-01-05T11:52:25.667Z,22.31
2019-01-05T11:53:25.409Z,22.27
2019-01-05T11:55:18.103Z,22.28
2019-01-05T11:56:18.079Z,22.32
2019-01-05T11:58:10.292Z,22.25
2019-01-05T11:59:10.098Z,22.31
2019-01-05T12:01:02.791Z,22.35
2019-01-05T12:02:02.408Z,22.31
2019-01-05T12:03:55.003Z,22.34
2019-01-05T12:04:55.077Z,22.34
2019-01-05T12:06:47.437Z,22.35
2019-01-05T12:07:47.414Z,22.29
2019-01-05T12:09:39.983Z,22.35
2019-01-05T12:10:39.717Z,22.28
2019-01-05T12:12:31.242Z,22.31
2019-01-05T12:13:31.571Z,22.31
2019-01-05T12:15:24.804Z,22.34
2019-01-05T12:16:24.522Z,22.35
2019-01-05T12:18:16.745Z,22.34
2019-01-05T12:19:16.372Z,22.31
2019-01-05T12:21:09.276Z,22.35
2019-01-05T12:22:09.091Z,22.34
2019-01-05T12:24:01.393Z,22.31
2019-01-05T12:25:01.060Z,22.29
2019-01-05T12:26:53.640Z,22.29
2019-01-05T12:27:53.742Z,22.32
2019-01-05T12:29:46.120Z,22.31
2019-01-05T12:30:45.753Z,22.35
2019-01-05T12:32:38.639Z,22.29
2019-01-05T12:33:38.072Z,22.37
2019-01-05T12:35:30.741Z,22.32
2019-01-05T12:36:30.733Z,22.35
2019-01-05T12:38:23.307Z,22.29
2019-01-05T12:39:22.697Z,22.28
2019-01-05T12:41:15.412Z,22.35
2019-01-05T12:42:15.009Z,22.32
2019-01-05T12:44:07.541Z,22.28
2019-01-05T12:45:07.699Z,22.32
2019-01-05T12:47:00.038Z,22.39
2019-01-05T12:48:00.075Z,22.29
2019-01-05T12:49:52.625Z,22.28
2019-01-05T12:50:52.380Z,22.28
2019-01-05T12:52:44.436Z,22.37
2019-01-05T12:53:44.395Z,22.29
2019-01-05T12:55:37.284Z,22.32
2019-01-05T12:56:37.062Z,22.28
2019-01-05T12:58:29.103Z,22.29
2019-01-05T12:59:29.408Z,22.35
2019-01-05T13:01:22.013Z,22.38
2019-01-05T13:02:21.373Z,22.34
2019-01-05T13:04:14.691Z,22.37
2019-01-05T13:05:13.710Z,22.28
2019-01-05T13:07:06.333Z,22.34
2019-01-05T13:08:06.097Z,22.25
2019-01-05T13:09:58.431Z,22.38
2019-01-05T13:10:58.391Z,22.38
2019-01-05T13:12:51.042Z,22.31
2019-01-05T13:13:50.759Z,22.29
2019-01-05T13:15:43.443Z,22.27
2019-01-05T13:16:43.395Z,22.35
2019-01-05T13:18:35.623Z,22.35
2019-01-05T13:19:35.388Z,22.37
2019-01-05T13:21:28.088Z,22.27
2019-01-05T13:22:28.125Z,22.38
2019-01-05T13:24:20.295Z,22.34
2019-01-05T13:25:20.415Z,22.32
2019-01-05T13:27:12.930Z,22.38
2019-01-05T13:28:12.881Z,22.35
2019-01-05T13:30:05.877Z,22.38
2019-01-05T13:31:05.557Z,22.35
2019-01-05T13:32:57.586Z,22.32
2019-01-05T13:33:57.620Z,22.37
2019-01-05T13:35:49.639Z,22.35
2019-01-05T13:36:49.463Z,22.39
2019-01-05T13:38:41.766Z,22.41
2019-01-05T13:39:42.101Z,22.32
2019-01-05T13:41:34.690Z,22.35
2019-01-05T13:42:34.079Z,22.38
2019-01-05T13:44:26.808Z,22.35
2019-01-05T13:45:26.432Z,22.34
2019-01-05T13:47:19.353Z,22.38
2019-01-05T13:48:18.735Z,22.31
2019-01-05T13:50:11.520Z,22.34
2019-01-05T13:51:11.102Z,22.38
2019-01-05T13:53:12.186Z,22.39
2019-01-05T13:54:03.799Z,22.27
2019-01-05T13:55:55.772Z,22.32
2019-01-05T13:56:56.164Z,22.39
2019-01-05T13:58:48.390Z,22.35
2019-01-05T13:59:48.093Z,22.39
2019-01-05T14:01:39.917Z,22.38
2019-01-05T14:02:40.296Z,22.31
2019-01-05T14:04:32.801Z,22.32
2019-01-05T14:05:32.600Z,22.31
2019-01-05T14:07:24.967Z,22.34
2019-01-05T14:08:24.559Z,22.35
2019-01-05T14:10:17.511Z,22.28
2019-01-05T14:11:16.916Z,22.38
2019-01-05T14:13:09.273Z,22.34
2019-01-05T14:14:09.247Z,22.38
2019-01-05T14:16:01.814Z,22.28
2019-01-05T14:17:01.591Z,22.34
2019-01-05T14:18:54.282Z,22.25
2019-01-05T14:19:54.281Z,22.39
2019-01-05T14:21:46.442Z,22.39
2019-01-05T14:22:46.239Z,22.32
2019-01-05T14:24:38.947Z,22.37
2019-01-05T14:25:38.526Z,22.31
2019-01-05T14:27:31.450Z,22.28
2019-01-05T14:28:31.245Z,22.28
2019-01-05T14:30:23.199Z,22.32
2019-01-05T14:31:23.576Z,22.35
2019-01-05T14:33:15.786Z,22.32
2019-01-05T14:34:15.869Z,22.38
2019-01-05T14:36:07.888Z,22.31
2019-01-05T14:37:08.224Z,22.39
2019-01-05T14:39:00.765Z,22.38
2019-01-05T14:40:00.200Z,22.37
2019-01-05T14:41:52.506Z,22.39
2019-01-05T14:42:52.865Z,22.34
2019-01-05T14:44:45.065Z,22.32
2019-01-05T14:45:44.828Z,22.41
2019-01-05T14:47:37.168Z,22.38
2019-01-05T14:48:37.500Z,22.41
2019-01-05T14:50:30.062Z,22.38
2019-01-05T14:51:29.480Z,22.38
2019-01-05T14:53:22.169Z,22.38
2019-01-05T14:54:22.213Z,22.35
2019-01-05T14:56:14.384Z,22.37
2019-01-05T14:57:14.141Z,22.35
2019-01-05T14:59:06.813Z,22.31
2019-01-05T15:00:06.457Z,22.35
2019-01-05T15:01:59.357Z,22.35
2019-01-05T15:02:59.199Z,22.35
2019-01-05T15:04:51.489Z,22.31
2019-01-05T15:05:51.158Z,22.38
2019-01-05T15:07:44.048Z,22.35
2019-01-05T15:08:43.463Z,22.28
2019-01-05T15:10:35.835Z,22.39
2019-01-05T15:11:35.818Z,22.43
2019-01-05T15:13:28.379Z,22.39
2019-01-05T15:14:28.148Z,22.35
2019-01-05T15:16:20.873Z,22.31
2019-01-05T15:17:20.514Z,22.29
2019-01-05T15:19:13.385Z,22.41
2019-01-05T15:20:12.801Z,22.35
2019-01-05T15:22:05.549Z,22.32
2019-01-05T15:23:05.539Z,22.23
2019-01-05T15:24:58.091Z,22.39
2019-01-05T15:25:57.841Z,22.27
2019-01-05T15:27:50.403Z,22.28
2019-01-05T15:28:50.750Z,22.31
2019-01-05T15:30:42.893Z,22.35
2019-01-05T15:31:42.710Z,22.29
2019-01-05T15:33:35.024Z,22.29
2019-01-05T15:34:35.381Z,22.25
2019-01-05T15:36:27.937Z,22.37
2019-01-05T15:37:27.343Z,22.35
2019-01-05T15:39:20.068Z,22.35
2019-01-05T15:40:19.732Z,22.39
2019-01-05T15:42:12.849Z,22.35
2019-01-05T15:43:12.383Z,22.43
2019-01-05T15:45:04.391Z,22.23
2019-01-05T15:46:04.350Z,22.28
2019-01-05T15:47:56.998Z,22.37
2019-01-05T15:48:56.714Z,22.29
2019-01-05T15:50:49.012Z,22.41
2019-01-05T15:51:49.333Z,22.35
2019-01-05T15:53:41.565Z,22.32
2019-01-05T15:54:41.370Z,22.27
2019-01-05T15:56:33.694Z,22.29
2019-01-05T15:57:33.689Z,22.38
2019-01-05T15:59:26.244Z,22.38
2019-01-05T16:00:26.356Z,22.27
2019-01-05T16:02:18.321Z,22.34
2019-01-05T16:03:18.669Z,22.35
2019-01-05T16:05:11.239Z,22.39
2019-01-05T16:06:10.996Z,22.37
2019-01-05T16:08:03.021Z,22.35
2019-01-05T16:09:03.359Z,22.35
2019-01-05T16:10:55.568Z,22.37
2019-01-05T16:11:55.691Z,22.32
2019-01-05T16:13:48.015Z,22.32
2019-01-05T16:14:47.988Z,22.35
2019-01-05T16:16:40.555Z,22.37
2019-01-05T16:17:40.309Z,22.37
2019-01-05T16:19:32.290Z,22.31
2019-01-05T16:20:32.294Z,22.34
2019-01-05T16:22:24.877Z,22.34
2019-01-05T16:23:25.004Z,22.31
2019-01-05T16:25:16.982Z,22.34
2019-01-05T16:26:17.328Z,22.41
2019-01-05T16:28:09.495Z,22.34
2019-01-05T16:29:09.595Z,22.43
2019-01-05T16:31:01.601Z,22.32
2019-01-05T16:32:01.990Z,22.39
2019-01-05T16:33:54.126Z,22.34
2019-01-05T16:34:53.945Z,22.39
2019-01-05T16:36:46.490Z,22.37
2019-01-05T16:37:46.850Z,22.43
2019-01-05T16:39:38.582Z,22.34
2019-01-05T16:40:38.319Z,22.37
2019-01-05T16:42:31.579Z,22.35
2019-01-05T16:43:30.668Z,22.35
2019-01-05T16:45:25.713Z,22.41
2019-01-05T16:46:23.993Z,22.35
2019-01-05T16:48:16.631Z,22.35
2019-01-05T16:49:16.301Z,22.37
2019-01-05T16:51:08.825Z,22.38
2019-01-05T16:52:08.617Z,22.39
2019-01-05T16:54:00.520Z,22.38
2019-01-05T16:55:00.487Z,22.35
2019-01-05T16:56:53.388Z,22.41
2019-01-05T16:57:52.787Z,22.32
2019-01-05T16:59:45.499Z,22.41
2019-01-05T17:00:45.150Z,22.44
2019-01-05T17:02:37.675Z,22.38
2019-01-05T17:03:37.491Z,22.31
2019-01-05T17:05:30.145Z,22.46
2019-01-05T17:06:29.768Z,22.39
2019-01-05T17:08:22.708Z,22.39
2019-01-05T17:09:22.136Z,22.35
2019-01-05T17:11:14.495Z,22.34
2019-01-05T17:12:14.775Z,22.32
2019-01-05T17:14:06.862Z,22.37
2019-01-05T17:15:06.927Z,22.43
2019-01-05T17:16:59.004Z,22.32
2019-01-05T17:17:58.634Z,22.43
2019-01-05T17:19:51.190Z,22.41
2019-01-05T17:20:50.992Z,22.35
2019-01-05T17:22:43.673Z,22.43
2019-01-05T17:23:43.627Z,22.38
2019-01-05T17:25:36.226Z,22.37
2019-01-05T17:26:35.977Z,22.41
2019-01-05T17:28:28.533Z,22.39
2019-01-05T17:29:28.529Z,22.35
2019-01-05T17:31:21.397Z,22.39
2019-01-05T17:32:20.829Z,22.41
2019-01-05T17:34:13.230Z,22.35
2019-01-05T17:35:13.527Z,22.46
2019-01-05T17:37:05.700Z,22.37
2019-01-05T17:38:05.822Z,22.32
2019-01-05T17:39:58.149Z,22.37
2019-01-05T17:40:58.145Z,22.44
2019-01-05T17:42:50.690Z,22.44
2019-01-05T17:43:50.466Z,22.32
2019-01-05T17:45:42.453Z,22.37
2019-01-05T17:46:42.438Z,22.43
2019-01-05T17:48:35.359Z,22.46
2019-01-05T17:49:34.771Z,22.37
2019-01-05T17:51:27.460Z,22.44
2019-01-05T17:52:27.442Z,22.52
2019-01-05T17:54:19.657Z,22.41
2019-01-05T17:55:19.827Z,22.43
2019-01-05T17:57:11.786Z,22.41
2019-01-05T17:58:11.749Z,22.37
2019-01-05T18:00:04.726Z,22.44
2019-01-05T18:01:04.486Z,22.44
2019-01-05T18:02:56.440Z,22.38
2019-01-05T18:03:56.793Z,22.41
2019-01-05T18:05:48.957Z,22.38
2019-01-05T18:06:48.742Z,22.43
2019-01-05T18:08:41.083Z,22.38
2019-01-05T18:09:41.447Z,22.37
2019-01-05T18:11:33.988Z,22.32
2019-01-05T18:12:33.750Z,22.39
2019-01-05T18:14:26.734Z,22.43
2019-01-05T18:15:25.737Z,22.37
2019-01-05T18:17:18.266Z,22.35
2019-01-05T18:18:18.059Z,22.38
2019-01-05T18:20:10.766Z,22.41
2019-01-05T18:21:10.376Z,22.43
2019-01-05T18:23:02.996Z,22.37
2019-01-05T18:24:03.037Z,22.41
2019-01-05T18:25:54.945Z,22.41
2019-01-05T18:26:54.574Z,22.46
2019-01-05T18:28:47.521Z,22.44